sensor_id;sensor_type;location;lat;lon;timestamp;P1;durP1;ratioP1;P2;durP2;ratioP2
12267;SDS011;6196;48.398;11.736;2023-05-14T00:01:02;10.83;;;9.27;;
12267;SDS011;6196;48.398;11.736;2023-05-14T00:03:29;9.77;;;8.77;;
12267;SDS011;6196;48.398;11.736;2023-05-14T00:05:56;10.37;;;8.37;;
12267;SDS011;6196;48.398;11.736;2023-05-14T00:08:23;10.13;;;8.70;;
12267;SDS011;6196;48.398;11.736;2023-05-14T00:10:50;9.83;;;8.93;;
12267;SDS011;6196;48.398;11.736;2023-05-14T00:13:17;9.50;;;8.43;;
12267;SDS011;6196;48.398;11.736;2023-05-14T00:15:44;9.37;;;8.47;;
12267;SDS011;6196;48.398;11.736;2023-05-14T00:18:11;9.90;;;8.90;;
12267;SDS011;6196;48.398;11.736;2023-05-14T00:20:39;9.57;;;8.57;;
12267;SDS011;6196;48.398;11.736;2023-05-14T00:23:06;9.93;;;9.03;;
12267;SDS011;6196;48.398;11.736;2023-05-14T00:25:33;10.10;;;8.13;;
12267;SDS011;6196;48.398;11.736;2023-05-14T00:28:02;9.73;;;8.70;;
12267;SDS011;6196;48.398;11.736;2023-05-14T00:30:29;9.17;;;7.90;;
12267;SDS011;6196;48.398;11.736;2023-05-14T00:32:56;10.87;;;8.50;;
12267;SDS011;6196;48.398;11.736;2023-05-14T00:35:23;10.10;;;8.77;;
12267;SDS011;6196;48.398;11.736;2023-05-14T00:37:50;9.80;;;8.90;;
12267;SDS011;6196;48.398;11.736;2023-05-14T00:40:18;11.20;;;9.23;;
12267;SDS011;6196;48.398;11.736;2023-05-14T00:42:45;10.30;;;9.20;;
12267;SDS011;6196;48.398;11.736;2023-05-14T00:45:11;10.40;;;9.40;;
12267;SDS011;6196;48.398;11.736;2023-05-14T00:47:39;9.97;;;9.00;;
12267;SDS011;6196;48.398;11.736;2023-05-14T00:50:06;8.97;;;8.07;;
12267;SDS011;6196;48.398;11.736;2023-05-14T00:52:34;9.67;;;8.67;;
12267;SDS011;6196;48.398;11.736;2023-05-14T00:55:03;10.27;;;9.20;;
12267;SDS011;6196;48.398;11.736;2023-05-14T00:57:32;11.40;;;9.03;;
12267;SDS011;6196;48.398;11.736;2023-05-14T01:00:02;10.23;;;9.23;;
12267;SDS011;6196;48.398;11.736;2023-05-14T01:02:30;9.43;;;8.53;;
12267;SDS011;6196;48.398;11.736;2023-05-14T01:04:57;10.83;;;9.03;;
12267;SDS011;6196;48.398;11.736;2023-05-14T01:10:31;9.97;;;8.97;;
12267;SDS011;6196;48.398;11.736;2023-05-14T01:13:43;11.33;;;9.23;;
12267;SDS011;6196;48.398;11.736;2023-05-14T01:16:43;9.43;;;8.53;;
12267;SDS011;6196;48.398;11.736;2023-05-14T01:19:20;9.53;;;8.53;;
12267;SDS011;6196;48.398;11.736;2023-05-14T01:22:09;10.17;;;9.17;;
12267;SDS011;6196;48.398;11.736;2023-05-14T01:24:36;10.40;;;8.80;;
12267;SDS011;6196;48.398;11.736;2023-05-14T01:32:58;9.93;;;8.93;;
12267;SDS011;6196;48.398;11.736;2023-05-14T01:35:28;10.23;;;9.20;;
12267;SDS011;6196;48.398;11.736;2023-05-14T01:37:56;10.40;;;8.87;;
12267;SDS011;6196;48.398;11.736;2023-05-14T01:40:27;9.83;;;8.83;;
12267;SDS011;6196;48.398;11.736;2023-05-14T01:42:55;10.40;;;9.30;;
12267;SDS011;6196;48.398;11.736;2023-05-14T01:45:22;11.33;;;9.53;;
12267;SDS011;6196;48.398;11.736;2023-05-14T01:47:50;10.20;;;9.20;;
12267;SDS011;6196;48.398;11.736;2023-05-14T01:50:17;10.97;;;9.87;;
12267;SDS011;6196;48.398;11.736;2023-05-14T01:52:44;10.10;;;8.80;;
12267;SDS011;6196;48.398;11.736;2023-05-14T01:55:13;10.27;;;9.27;;
12267;SDS011;6196;48.398;11.736;2023-05-14T01:57:41;9.90;;;8.93;;
12267;SDS011;6196;48.398;11.736;2023-05-14T02:00:07;10.20;;;9.13;;
12267;SDS011;6196;48.398;11.736;2023-05-14T02:02:35;12.43;;;9.07;;
12267;SDS011;6196;48.398;11.736;2023-05-14T02:05:02;10.13;;;9.13;;
12267;SDS011;6196;48.398;11.736;2023-05-14T02:07:32;11.27;;;9.30;;
12267;SDS011;6196;48.398;11.736;2023-05-14T02:09:59;10.50;;;9.10;;
12267;SDS011;6196;48.398;11.736;2023-05-14T02:12:25;10.83;;;9.73;;
12267;SDS011;6196;48.398;11.736;2023-05-14T02:14:52;11.70;;;9.63;;
12267;SDS011;6196;48.398;11.736;2023-05-14T02:17:19;11.10;;;9.60;;
12267;SDS011;6196;48.398;11.736;2023-05-14T02:19:46;10.27;;;9.27;;
12267;SDS011;6196;48.398;11.736;2023-05-14T02:22:13;12.13;;;9.83;;
12267;SDS011;6196;48.398;11.736;2023-05-14T02:24:40;11.83;;;9.93;;
12267;SDS011;6196;48.398;11.736;2023-05-14T02:27:07;11.07;;;9.97;;
12267;SDS011;6196;48.398;11.736;2023-05-14T02:29:34;10.47;;;9.43;;
12267;SDS011;6196;48.398;11.736;2023-05-14T02:32:01;10.60;;;9.60;;
12267;SDS011;6196;48.398;11.736;2023-05-14T02:34:28;10.80;;;9.80;;
12267;SDS011;6196;48.398;11.736;2023-05-14T02:36:55;11.73;;;10.53;;
12267;SDS011;6196;48.398;11.736;2023-05-14T02:39:22;11.63;;;10.43;;
12267;SDS011;6196;48.398;11.736;2023-05-14T02:41:48;10.83;;;9.73;;
12267;SDS011;6196;48.398;11.736;2023-05-14T02:44:15;11.13;;;10.03;;
12267;SDS011;6196;48.398;11.736;2023-05-14T02:46:42;10.80;;;9.80;;
12267;SDS011;6196;48.398;11.736;2023-05-14T02:49:09;12.17;;;10.97;;
12267;SDS011;6196;48.398;11.736;2023-05-14T02:51:36;11.63;;;10.60;;
12267;SDS011;6196;48.398;11.736;2023-05-14T02:54:03;12.53;;;11.30;;
12267;SDS011;6196;48.398;11.736;2023-05-14T02:56:30;13.20;;;11.00;;
12267;SDS011;6196;48.398;11.736;2023-05-14T02:58:57;10.70;;;9.63;;
12267;SDS011;6196;48.398;11.736;2023-05-14T03:01:24;11.33;;;10.13;;
12267;SDS011;6196;48.398;11.736;2023-05-14T03:03:51;11.57;;;10.37;;
12267;SDS011;6196;48.398;11.736;2023-05-14T03:06:18;11.70;;;10.50;;
12267;SDS011;6196;48.398;11.736;2023-05-14T03:08:45;12.00;;;10.80;;
12267;SDS011;6196;48.398;11.736;2023-05-14T03:11:12;12.60;;;11.30;;
12267;SDS011;6196;48.398;11.736;2023-05-14T03:13:39;11.70;;;10.00;;
12267;SDS011;6196;48.398;11.736;2023-05-14T03:16:06;11.67;;;10.47;;
12267;SDS011;6196;48.398;11.736;2023-05-14T03:18:33;11.43;;;10.33;;
12267;SDS011;6196;48.398;11.736;2023-05-14T03:21:01;11.33;;;10.23;;
12267;SDS011;6196;48.398;11.736;2023-05-14T03:23:29;10.40;;;9.30;;
12267;SDS011;6196;48.398;11.736;2023-05-14T03:26:00;10.87;;;9.77;;
12267;SDS011;6196;48.398;11.736;2023-05-14T03:28:27;11.73;;;10.50;;
12267;SDS011;6196;48.398;11.736;2023-05-14T03:30:54;11.23;;;9.90;;
12267;SDS011;6196;48.398;11.736;2023-05-14T03:33:21;11.47;;;10.27;;
12267;SDS011;6196;48.398;11.736;2023-05-14T03:35:48;13.17;;;11.03;;
12267;SDS011;6196;48.398;11.736;2023-05-14T03:38:16;11.57;;;10.47;;
12267;SDS011;6196;48.398;11.736;2023-05-14T03:40:43;13.33;;;10.97;;
12267;SDS011;6196;48.398;11.736;2023-05-14T03:43:10;11.83;;;10.73;;
12267;SDS011;6196;48.398;11.736;2023-05-14T03:45:37;12.77;;;10.30;;
12267;SDS011;6196;48.398;11.736;2023-05-14T03:48:05;11.90;;;10.70;;
12267;SDS011;6196;48.398;11.736;2023-05-14T03:50:32;11.40;;;10.27;;
12267;SDS011;6196;48.398;11.736;2023-05-14T03:52:58;12.17;;;10.87;;
12267;SDS011;6196;48.398;11.736;2023-05-14T03:55:25;13.20;;;10.90;;
12267;SDS011;6196;48.398;11.736;2023-05-14T03:57:52;11.67;;;10.47;;
12267;SDS011;6196;48.398;11.736;2023-05-14T04:00:19;12.77;;;11.47;;
12267;SDS011;6196;48.398;11.736;2023-05-14T04:02:47;12.67;;;11.37;;
12267;SDS011;6196;48.398;11.736;2023-05-14T04:05:14;12.90;;;11.53;;
12267;SDS011;6196;48.398;11.736;2023-05-14T04:07:41;13.63;;;11.03;;
12267;SDS011;6196;48.398;11.736;2023-05-14T04:10:07;12.87;;;11.63;;
12267;SDS011;6196;48.398;11.736;2023-05-14T04:12:35;12.77;;;11.47;;
12267;SDS011;6196;48.398;11.736;2023-05-14T04:15:01;13.90;;;11.10;;
12267;SDS011;6196;48.398;11.736;2023-05-14T04:17:29;12.73;;;11.40;;
12267;SDS011;6196;48.398;11.736;2023-05-14T04:19:55;12.97;;;11.67;;
12267;SDS011;6196;48.398;11.736;2023-05-14T04:22:22;12.53;;;11.23;;
12267;SDS011;6196;48.398;11.736;2023-05-14T04:24:49;12.60;;;11.30;;
12267;SDS011;6196;48.398;11.736;2023-05-14T04:27:20;13.13;;;11.70;;
12267;SDS011;6196;48.398;11.736;2023-05-14T04:29:47;11.80;;;10.60;;
12267;SDS011;6196;48.398;11.736;2023-05-14T04:32:15;13.00;;;11.70;;
12267;SDS011;6196;48.398;11.736;2023-05-14T04:34:43;14.00;;;11.70;;
12267;SDS011;6196;48.398;11.736;2023-05-14T04:37:10;14.77;;;12.00;;
12267;SDS011;6196;48.398;11.736;2023-05-14T04:39:37;13.07;;;11.27;;
12267;SDS011;6196;48.398;11.736;2023-05-14T04:42:04;12.70;;;11.37;;
12267;SDS011;6196;48.398;11.736;2023-05-14T04:44:32;13.87;;;11.63;;
12267;SDS011;6196;48.398;11.736;2023-05-14T04:47:00;14.23;;;11.17;;
12267;SDS011;6196;48.398;11.736;2023-05-14T04:49:28;12.50;;;11.20;;
12267;SDS011;6196;48.398;11.736;2023-05-14T04:51:55;14.07;;;11.77;;
12267;SDS011;6196;48.398;11.736;2023-05-14T04:54:22;13.83;;;12.10;;
12267;SDS011;6196;48.398;11.736;2023-05-14T04:56:49;14.37;;;12.37;;
12267;SDS011;6196;48.398;11.736;2023-05-14T04:59:16;13.87;;;12.47;;
12267;SDS011;6196;48.398;11.736;2023-05-14T05:01:43;14.50;;;12.43;;
12267;SDS011;6196;48.398;11.736;2023-05-14T05:04:11;14.13;;;12.63;;
12267;SDS011;6196;48.398;11.736;2023-05-14T05:06:38;13.77;;;12.37;;
12267;SDS011;6196;48.398;11.736;2023-05-14T05:09:05;14.23;;;12.50;;
12267;SDS011;6196;48.398;11.736;2023-05-14T05:11:33;14.70;;;13.13;;
12267;SDS011;6196;48.398;11.736;2023-05-14T05:14:00;15.00;;;13.40;;
12267;SDS011;6196;48.398;11.736;2023-05-14T05:16:27;15.53;;;13.03;;
12267;SDS011;6196;48.398;11.736;2023-05-14T05:18:54;14.70;;;13.10;;
12267;SDS011;6196;48.398;11.736;2023-05-14T05:21:21;15.17;;;13.53;;
12267;SDS011;6196;48.398;11.736;2023-05-14T05:23:48;15.57;;;13.50;;
12267;SDS011;6196;48.398;11.736;2023-05-14T05:26:15;18.93;;;15.60;;
12267;SDS011;6196;48.398;11.736;2023-05-14T05:28:42;16.43;;;14.63;;
12267;SDS011;6196;48.398;11.736;2023-05-14T05:31:09;17.53;;;15.00;;
12267;SDS011;6196;48.398;11.736;2023-05-14T05:33:36;16.10;;;14.40;;
12267;SDS011;6196;48.398;11.736;2023-05-14T05:36:03;17.90;;;14.70;;
12267;SDS011;6196;48.398;11.736;2023-05-14T05:38:30;17.30;;;14.53;;
12267;SDS011;6196;48.398;11.736;2023-05-14T05:40:57;16.87;;;14.70;;
12267;SDS011;6196;48.398;11.736;2023-05-14T05:43:24;16.77;;;14.67;;
12267;SDS011;6196;48.398;11.736;2023-05-14T05:45:51;17.10;;;14.93;;
12267;SDS011;6196;48.398;11.736;2023-05-14T05:48:18;17.17;;;14.90;;
12267;SDS011;6196;48.398;11.736;2023-05-14T05:50:48;17.23;;;14.93;;
12267;SDS011;6196;48.398;11.736;2023-05-14T05:53:16;17.00;;;15.13;;
12267;SDS011;6196;48.398;11.736;2023-05-14T05:55:43;15.77;;;13.50;;
12267;SDS011;6196;48.398;11.736;2023-05-14T05:58:10;16.00;;;14.40;;
12267;SDS011;6196;48.398;11.736;2023-05-14T06:00:39;16.77;;;14.80;;
12267;SDS011;6196;48.398;11.736;2023-05-14T06:03:06;15.63;;;13.80;;
12267;SDS011;6196;48.398;11.736;2023-05-14T06:05:33;16.07;;;14.37;;
12267;SDS011;6196;48.398;11.736;2023-05-14T06:08:00;15.73;;;14.13;;
12267;SDS011;6196;48.398;11.736;2023-05-14T06:10:27;17.60;;;14.13;;
12267;SDS011;6196;48.398;11.736;2023-05-14T06:12:54;14.00;;;12.53;;
12267;SDS011;6196;48.398;11.736;2023-05-14T06:15:21;14.73;;;13.23;;
12267;SDS011;6196;48.398;11.736;2023-05-14T06:17:48;15.83;;;14.13;;
12267;SDS011;6196;48.398;11.736;2023-05-14T06:20:15;14.80;;;13.30;;
12267;SDS011;6196;48.398;11.736;2023-05-14T06:22:42;14.57;;;13.07;;
12267;SDS011;6196;48.398;11.736;2023-05-14T06:25:09;15.60;;;13.87;;
12267;SDS011;6196;48.398;11.736;2023-05-14T06:27:36;15.83;;;13.13;;
12267;SDS011;6196;48.398;11.736;2023-05-14T06:30:03;15.27;;;13.57;;
12267;SDS011;6196;48.398;11.736;2023-05-14T06:32:32;15.40;;;13.27;;
12267;SDS011;6196;48.398;11.736;2023-05-14T06:34:59;15.53;;;13.37;;
12267;SDS011;6196;48.398;11.736;2023-05-14T06:37:25;15.97;;;13.50;;
12267;SDS011;6196;48.398;11.736;2023-05-14T06:39:52;16.90;;;12.80;;
12267;SDS011;6196;48.398;11.736;2023-05-14T06:42:22;18.40;;;13.50;;
12267;SDS011;6196;48.398;11.736;2023-05-14T06:44:49;14.43;;;12.33;;
12267;SDS011;6196;48.398;11.736;2023-05-14T06:47:16;13.67;;;11.87;;
12267;SDS011;6196;48.398;11.736;2023-05-14T06:49:43;14.47;;;12.10;;
12267;SDS011;6196;48.398;11.736;2023-05-14T06:52:10;16.67;;;12.37;;
12267;SDS011;6196;48.398;11.736;2023-05-14T06:54:37;15.77;;;12.20;;
12267;SDS011;6196;48.398;11.736;2023-05-14T06:57:04;14.03;;;12.40;;
12267;SDS011;6196;48.398;11.736;2023-05-14T06:59:31;13.30;;;11.57;;
12267;SDS011;6196;48.398;11.736;2023-05-14T07:01:58;13.37;;;11.93;;
12267;SDS011;6196;48.398;11.736;2023-05-14T07:04:25;13.17;;;11.40;;
12267;SDS011;6196;48.398;11.736;2023-05-14T07:06:52;13.97;;;12.40;;
12267;SDS011;6196;48.398;11.736;2023-05-14T07:09:19;14.47;;;11.80;;
12267;SDS011;6196;48.398;11.736;2023-05-14T07:11:47;13.33;;;11.10;;
12267;SDS011;6196;48.398;11.736;2023-05-14T07:14:13;14.33;;;11.73;;
12267;SDS011;6196;48.398;11.736;2023-05-14T07:16:41;13.67;;;11.23;;
12267;SDS011;6196;48.398;11.736;2023-05-14T07:19:08;12.10;;;10.90;;
12267;SDS011;6196;48.398;11.736;2023-05-14T07:21:35;12.70;;;10.70;;
12267;SDS011;6196;48.398;11.736;2023-05-14T07:24:01;26.93;;;19.07;;
12267;SDS011;6196;48.398;11.736;2023-05-14T07:26:29;20.63;;;15.77;;
12267;SDS011;6196;48.398;11.736;2023-05-14T07:28:56;11.17;;;9.97;;
12267;SDS011;6196;48.398;11.736;2023-05-14T07:31:23;10.57;;;9.33;;
12267;SDS011;6196;48.398;11.736;2023-05-14T07:33:50;11.03;;;9.43;;
12267;SDS011;6196;48.398;11.736;2023-05-14T07:36:17;10.17;;;9.10;;
12267;SDS011;6196;48.398;11.736;2023-05-14T07:38:44;10.63;;;9.53;;
12267;SDS011;6196;48.398;11.736;2023-05-14T07:41:11;10.80;;;9.50;;
12267;SDS011;6196;48.398;11.736;2023-05-14T07:43:38;10.57;;;9.27;;
12267;SDS011;6196;48.398;11.736;2023-05-14T07:46:05;9.73;;;8.83;;
12267;SDS011;6196;48.398;11.736;2023-05-14T07:48:32;9.40;;;8.50;;
12267;SDS011;6196;48.398;11.736;2023-05-14T07:50:59;10.27;;;8.97;;
12267;SDS011;6196;48.398;11.736;2023-05-14T07:53:26;9.10;;;8.20;;
12267;SDS011;6196;48.398;11.736;2023-05-14T07:55:53;9.50;;;8.57;;
12267;SDS011;6196;48.398;11.736;2023-05-14T07:58:20;8.93;;;7.97;;
12267;SDS011;6196;48.398;11.736;2023-05-14T08:00:47;9.03;;;8.13;;
12267;SDS011;6196;48.398;11.736;2023-05-14T08:03:14;9.17;;;8.27;;
12267;SDS011;6196;48.398;11.736;2023-05-14T08:05:41;9.33;;;8.33;;
12267;SDS011;6196;48.398;11.736;2023-05-14T08:08:08;8.37;;;7.57;;
12267;SDS011;6196;48.398;11.736;2023-05-14T08:10:35;8.13;;;7.33;;
12267;SDS011;6196;48.398;11.736;2023-05-14T08:13:01;8.27;;;7.47;;
12267;SDS011;6196;48.398;11.736;2023-05-14T08:15:28;8.70;;;7.80;;
12267;SDS011;6196;48.398;11.736;2023-05-14T08:17:56;8.17;;;7.37;;
12267;SDS011;6196;48.398;11.736;2023-05-14T08:20:28;7.33;;;6.67;;
12267;SDS011;6196;48.398;11.736;2023-05-14T08:22:56;8.13;;;7.40;;
12267;SDS011;6196;48.398;11.736;2023-05-14T08:25:23;7.40;;;6.70;;
12267;SDS011;6196;48.398;11.736;2023-05-14T08:27:50;8.47;;;6.97;;
12267;SDS011;6196;48.398;11.736;2023-05-14T08:30:18;7.40;;;6.70;;
12267;SDS011;6196;48.398;11.736;2023-05-14T08:32:47;8.27;;;7.47;;
12267;SDS011;6196;48.398;11.736;2023-05-14T08:35:14;8.17;;;7.47;;
12267;SDS011;6196;48.398;11.736;2023-05-14T08:37:42;8.03;;;7.23;;
12267;SDS011;6196;48.398;11.736;2023-05-14T08:40:10;8.60;;;7.80;;
12267;SDS011;6196;48.398;11.736;2023-05-14T08:42:38;8.20;;;7.40;;
12267;SDS011;6196;48.398;11.736;2023-05-14T08:45:09;8.33;;;7.53;;
12267;SDS011;6196;48.398;11.736;2023-05-14T08:47:47;9.23;;;7.57;;
12267;SDS011;6196;48.398;11.736;2023-05-14T08:50:16;8.77;;;7.87;;
12267;SDS011;6196;48.398;11.736;2023-05-14T08:52:48;9.70;;;8.70;;
12267;SDS011;6196;48.398;11.736;2023-05-14T08:55:15;8.57;;;7.77;;
12267;SDS011;6196;48.398;11.736;2023-05-14T08:57:42;9.27;;;8.47;;
12267;SDS011;6196;48.398;11.736;2023-05-14T09:00:10;9.30;;;8.50;;
12267;SDS011;6196;48.398;11.736;2023-05-14T09:02:40;8.97;;;8.17;;
12267;SDS011;6196;48.398;11.736;2023-05-14T09:05:09;8.80;;;8.00;;
12267;SDS011;6196;48.398;11.736;2023-05-14T09:07:37;8.83;;;8.03;;
12267;SDS011;6196;48.398;11.736;2023-05-14T09:10:05;9.23;;;8.33;;
12267;SDS011;6196;48.398;11.736;2023-05-14T09:12:34;8.77;;;7.97;;
12267;SDS011;6196;48.398;11.736;2023-05-14T09:15:01;8.33;;;7.27;;
12267;SDS011;6196;48.398;11.736;2023-05-14T09:17:27;9.03;;;7.83;;
12267;SDS011;6196;48.398;11.736;2023-05-14T09:19:55;6.90;;;6.30;;
12267;SDS011;6196;48.398;11.736;2023-05-14T09:22:22;6.70;;;6.10;;
12267;SDS011;6196;48.398;11.736;2023-05-14T09:25:08;7.70;;;7.00;;
12267;SDS011;6196;48.398;11.736;2023-05-14T09:27:37;7.20;;;6.60;;
12267;SDS011;6196;48.398;11.736;2023-05-14T09:30:08;8.27;;;7.40;;
12267;SDS011;6196;48.398;11.736;2023-05-14T09:32:38;8.03;;;7.33;;
12267;SDS011;6196;48.398;11.736;2023-05-14T09:35:13;8.40;;;7.70;;
12267;SDS011;6196;48.398;11.736;2023-05-14T09:37:47;7.70;;;6.90;;
12267;SDS011;6196;48.398;11.736;2023-05-14T09:40:19;7.70;;;7.00;;
12267;SDS011;6196;48.398;11.736;2023-05-14T09:42:49;7.77;;;6.97;;
12267;SDS011;6196;48.398;11.736;2023-05-14T09:45:16;8.20;;;7.33;;
12267;SDS011;6196;48.398;11.736;2023-05-14T09:47:43;7.97;;;7.17;;
12267;SDS011;6196;48.398;11.736;2023-05-14T09:50:11;7.77;;;7.07;;
12267;SDS011;6196;48.398;11.736;2023-05-14T09:52:38;7.70;;;7.03;;
12267;SDS011;6196;48.398;11.736;2023-05-14T09:55:05;7.83;;;7.13;;
12267;SDS011;6196;48.398;11.736;2023-05-14T09:57:34;8.37;;;6.97;;
12267;SDS011;6196;48.398;11.736;2023-05-14T10:00:02;7.10;;;6.43;;
12267;SDS011;6196;48.398;11.736;2023-05-14T10:02:33;7.10;;;6.13;;
12267;SDS011;6196;48.398;11.736;2023-05-14T10:05:06;6.50;;;5.93;;
12267;SDS011;6196;48.398;11.736;2023-05-14T10:07:38;6.77;;;6.17;;
12267;SDS011;6196;48.398;11.736;2023-05-14T10:10:12;6.67;;;6.07;;
12267;SDS011;6196;48.398;11.736;2023-05-14T10:12:45;6.90;;;6.20;;
12267;SDS011;6196;48.398;11.736;2023-05-14T10:15:29;7.03;;;6.43;;
12267;SDS011;6196;48.398;11.736;2023-05-14T10:18:08;6.87;;;6.27;;
12267;SDS011;6196;48.398;11.736;2023-05-14T10:20:39;7.20;;;6.60;;
12267;SDS011;6196;48.398;11.736;2023-05-14T10:23:06;6.70;;;6.10;;
12267;SDS011;6196;48.398;11.736;2023-05-14T10:25:34;9.13;;;6.70;;
12267;SDS011;6196;48.398;11.736;2023-05-14T10:28:02;7.13;;;6.50;;
12267;SDS011;6196;48.398;11.736;2023-05-14T10:30:31;7.40;;;6.70;;
12267;SDS011;6196;48.398;11.736;2023-05-14T10:33:05;7.07;;;6.40;;
12267;SDS011;6196;48.398;11.736;2023-05-14T10:35:59;6.77;;;6.07;;
12267;SDS011;6196;48.398;11.736;2023-05-14T10:38:29;7.57;;;6.87;;
12267;SDS011;6196;48.398;11.736;2023-05-14T10:43:36;7.97;;;6.60;;
12267;SDS011;6196;48.398;11.736;2023-05-14T10:46:05;6.97;;;6.37;;
12267;SDS011;6196;48.398;11.736;2023-05-14T10:48:34;7.33;;;6.67;;
12267;SDS011;6196;48.398;11.736;2023-05-14T10:51:05;7.63;;;6.87;;
12267;SDS011;6196;48.398;11.736;2023-05-14T10:53:36;7.90;;;7.20;;
12267;SDS011;6196;48.398;11.736;2023-05-14T10:56:09;7.20;;;6.60;;
12267;SDS011;6196;48.398;11.736;2023-05-14T10:58:39;6.63;;;6.03;;
12267;SDS011;6196;48.398;11.736;2023-05-14T11:01:10;6.50;;;5.90;;
12267;SDS011;6196;48.398;11.736;2023-05-14T11:03:42;7.77;;;6.77;;
12267;SDS011;6196;48.398;11.736;2023-05-14T11:06:12;7.30;;;6.70;;
12267;SDS011;6196;48.398;11.736;2023-05-14T11:08:41;6.93;;;6.33;;
12267;SDS011;6196;48.398;11.736;2023-05-14T11:11:08;7.80;;;7.10;;
12267;SDS011;6196;48.398;11.736;2023-05-14T11:13:36;6.97;;;6.27;;
12267;SDS011;6196;48.398;11.736;2023-05-14T11:16:03;7.47;;;6.77;;
12267;SDS011;6196;48.398;11.736;2023-05-14T11:18:47;7.23;;;6.30;;
12267;SDS011;6196;48.398;11.736;2023-05-14T11:21:27;7.00;;;6.30;;
12267;SDS011;6196;48.398;11.736;2023-05-14T11:23:55;6.80;;;6.20;;
12267;SDS011;6196;48.398;11.736;2023-05-14T11:26:22;7.20;;;6.60;;
12267;SDS011;6196;48.398;11.736;2023-05-14T11:28:49;7.70;;;6.57;;
12267;SDS011;6196;48.398;11.736;2023-05-14T11:31:16;7.43;;;6.73;;
12267;SDS011;6196;48.398;11.736;2023-05-14T11:33:44;7.37;;;6.67;;
12267;SDS011;6196;48.398;11.736;2023-05-14T11:36:11;7.20;;;6.50;;
12267;SDS011;6196;48.398;11.736;2023-05-14T11:38:45;7.10;;;6.50;;
12267;SDS011;6196;48.398;11.736;2023-05-14T11:41:17;7.07;;;6.47;;
12267;SDS011;6196;48.398;11.736;2023-05-14T11:43:46;9.83;;;7.13;;
12267;SDS011;6196;48.398;11.736;2023-05-14T11:46:17;7.57;;;6.87;;
12267;SDS011;6196;48.398;11.736;2023-05-14T11:48:44;6.80;;;6.20;;
12267;SDS011;6196;48.398;11.736;2023-05-14T11:51:11;6.97;;;6.37;;
12267;SDS011;6196;48.398;11.736;2023-05-14T11:53:38;6.67;;;6.07;;
12267;SDS011;6196;48.398;11.736;2023-05-14T11:56:05;6.37;;;5.77;;
12267;SDS011;6196;48.398;11.736;2023-05-14T11:58:34;6.70;;;6.00;;
12267;SDS011;6196;48.398;11.736;2023-05-14T12:01:01;6.70;;;6.10;;
12267;SDS011;6196;48.398;11.736;2023-05-14T12:03:29;6.00;;;5.50;;
12267;SDS011;6196;48.398;11.736;2023-05-14T12:05:56;6.47;;;5.90;;
12267;SDS011;6196;48.398;11.736;2023-05-14T12:08:26;6.27;;;5.77;;
12267;SDS011;6196;48.398;11.736;2023-05-14T12:10:54;6.03;;;5.53;;
12267;SDS011;6196;48.398;11.736;2023-05-14T12:13:26;6.43;;;5.93;;
12267;SDS011;6196;48.398;11.736;2023-05-14T12:15:55;5.97;;;5.47;;
12267;SDS011;6196;48.398;11.736;2023-05-14T12:18:28;6.70;;;6.07;;
12267;SDS011;6196;48.398;11.736;2023-05-14T12:21:04;6.00;;;5.43;;
12267;SDS011;6196;48.398;11.736;2023-05-14T12:23:33;5.83;;;5.33;;
12267;SDS011;6196;48.398;11.736;2023-05-14T12:26:04;6.30;;;5.80;;
12267;SDS011;6196;48.398;11.736;2023-05-14T12:28:34;5.63;;;5.10;;
12267;SDS011;6196;48.398;11.736;2023-05-14T12:31:04;5.37;;;4.87;;
12267;SDS011;6196;48.398;11.736;2023-05-14T12:33:31;5.60;;;5.10;;
12267;SDS011;6196;48.398;11.736;2023-05-14T12:35:58;4.97;;;4.63;;
12267;SDS011;6196;48.398;11.736;2023-05-14T12:38:32;4.73;;;4.33;;
12267;SDS011;6196;48.398;11.736;2023-05-14T12:40:59;4.97;;;4.57;;
12267;SDS011;6196;48.398;11.736;2023-05-14T12:43:26;5.23;;;4.73;;
12267;SDS011;6196;48.398;11.736;2023-05-14T12:45:56;4.50;;;4.20;;
12267;SDS011;6196;48.398;11.736;2023-05-14T12:48:23;5.07;;;4.67;;
12267;SDS011;6196;48.398;11.736;2023-05-14T12:50:50;4.60;;;4.10;;
12267;SDS011;6196;48.398;11.736;2023-05-14T12:53:17;3.43;;;3.13;;
12267;SDS011;6196;48.398;11.736;2023-05-14T12:55:44;4.17;;;3.87;;
12267;SDS011;6196;48.398;11.736;2023-05-14T12:58:10;4.07;;;3.73;;
12267;SDS011;6196;48.398;11.736;2023-05-14T13:00:37;3.70;;;3.40;;
12267;SDS011;6196;48.398;11.736;2023-05-14T13:03:05;3.83;;;3.47;;
12267;SDS011;6196;48.398;11.736;2023-05-14T13:05:32;3.80;;;3.50;;
12267;SDS011;6196;48.398;11.736;2023-05-14T13:07:59;3.80;;;3.50;;
12267;SDS011;6196;48.398;11.736;2023-05-14T13:10:28;4.50;;;4.10;;
12267;SDS011;6196;48.398;11.736;2023-05-14T13:12:55;4.60;;;4.20;;
12267;SDS011;6196;48.398;11.736;2023-05-14T13:15:23;4.20;;;3.83;;
12267;SDS011;6196;48.398;11.736;2023-05-14T13:17:50;4.00;;;3.60;;
12267;SDS011;6196;48.398;11.736;2023-05-14T13:20:17;4.13;;;3.80;;
12267;SDS011;6196;48.398;11.736;2023-05-14T13:22:44;3.90;;;3.60;;
12267;SDS011;6196;48.398;11.736;2023-05-14T13:25:11;3.67;;;3.37;;
12267;SDS011;6196;48.398;11.736;2023-05-14T13:27:38;4.17;;;3.77;;
12267;SDS011;6196;48.398;11.736;2023-05-14T13:30:05;4.57;;;3.97;;
12267;SDS011;6196;48.398;11.736;2023-05-14T13:32:32;4.43;;;4.03;;
12267;SDS011;6196;48.398;11.736;2023-05-14T13:34:59;3.60;;;3.30;;
12267;SDS011;6196;48.398;11.736;2023-05-14T13:37:26;3.73;;;3.43;;
12267;SDS011;6196;48.398;11.736;2023-05-14T13:39:53;3.13;;;2.93;;
12267;SDS011;6196;48.398;11.736;2023-05-14T13:42:20;3.53;;;2.80;;
12267;SDS011;6196;48.398;11.736;2023-05-14T13:44:48;2.90;;;2.60;;
12267;SDS011;6196;48.398;11.736;2023-05-14T13:47:15;3.10;;;2.90;;
12267;SDS011;6196;48.398;11.736;2023-05-14T13:49:42;2.97;;;2.77;;
12267;SDS011;6196;48.398;11.736;2023-05-14T13:52:09;2.67;;;2.47;;
12267;SDS011;6196;48.398;11.736;2023-05-14T13:54:36;2.83;;;2.53;;
12267;SDS011;6196;48.398;11.736;2023-05-14T13:57:03;2.93;;;2.57;;
12267;SDS011;6196;48.398;11.736;2023-05-14T13:59:30;2.73;;;2.53;;
12267;SDS011;6196;48.398;11.736;2023-05-14T14:01:57;2.20;;;2.10;;
12267;SDS011;6196;48.398;11.736;2023-05-14T14:04:24;2.53;;;2.33;;
12267;SDS011;6196;48.398;11.736;2023-05-14T14:06:54;2.50;;;2.40;;
12267;SDS011;6196;48.398;11.736;2023-05-14T14:09:21;3.03;;;2.43;;
12267;SDS011;6196;48.398;11.736;2023-05-14T14:11:49;2.60;;;2.40;;
12267;SDS011;6196;48.398;11.736;2023-05-14T14:14:16;2.40;;;2.20;;
12267;SDS011;6196;48.398;11.736;2023-05-14T14:16:43;2.50;;;2.30;;
12267;SDS011;6196;48.398;11.736;2023-05-14T14:19:10;2.93;;;2.20;;
12267;SDS011;6196;48.398;11.736;2023-05-14T14:21:37;2.60;;;2.40;;
12267;SDS011;6196;48.398;11.736;2023-05-14T14:24:07;3.00;;;2.70;;
12267;SDS011;6196;48.398;11.736;2023-05-14T14:26:34;3.53;;;2.63;;
12267;SDS011;6196;48.398;11.736;2023-05-14T14:29:01;2.23;;;1.97;;
12267;SDS011;6196;48.398;11.736;2023-05-14T14:31:28;2.17;;;2.03;;
12267;SDS011;6196;48.398;11.736;2023-05-14T14:33:55;3.20;;;2.20;;
12267;SDS011;6196;48.398;11.736;2023-05-14T14:36:22;2.27;;;2.10;;
12267;SDS011;6196;48.398;11.736;2023-05-14T14:38:49;2.30;;;2.10;;
12267;SDS011;6196;48.398;11.736;2023-05-14T14:41:16;2.10;;;2.00;;
12267;SDS011;6196;48.398;11.736;2023-05-14T14:43:43;1.90;;;1.80;;
12267;SDS011;6196;48.398;11.736;2023-05-14T14:46:10;2.10;;;1.90;;
12267;SDS011;6196;48.398;11.736;2023-05-14T14:48:37;2.00;;;1.90;;
12267;SDS011;6196;48.398;11.736;2023-05-14T14:51:04;2.17;;;1.97;;
12267;SDS011;6196;48.398;11.736;2023-05-14T14:53:32;2.10;;;1.90;;
12267;SDS011;6196;48.398;11.736;2023-05-14T14:56:01;2.50;;;2.00;;